createdAt,value
2018-11-29T00:01:40.096Z,74.73
2018-11-29T00:05:05.132Z,74.35
2018-11-29T00:08:29.840Z,74.55
2018-11-29T00:11:54.564Z,75.24
2018-11-29T00:15:19.301Z,74.66
2018-11-29T00:18:44.039Z,74.55
2018-11-29T00:22:08.784Z,74.98
2018-11-29T00:25:33.467Z,73.63
2018-11-29T00:28:58.183Z,74.27
2018-11-29T00:32:22.919Z,74.16
2018-11-29T00:35:47.666Z,74.74
2018-11-29T00:39:12.401Z,75.06
2018-11-29T00:42:37.041Z,74.65
2018-11-29T00:46:01.729Z,74.08
2018-11-29T00:49:26.402Z,73.88
2018-11-29T00:52:51.875Z,74.96
2018-11-29T00:56:16.565Z,73.47
2018-11-29T00:59:41.295Z,73.66
2018-11-29T01:03:06.018Z,74.13
2018-11-29T01:06:30.710Z,73.88
2018-11-29T01:09:55.404Z,74.27
2018-11-29T01:13:20.127Z,74.24
2018-11-29T01:16:44.837Z,73.71
2018-11-29T01:20:13.113Z,74.96
2018-11-29T01:23:37.864Z,74.64
2018-11-29T01:27:02.532Z,74.64
2018-11-29T01:30:27.237Z,74.11
2018-11-29T01:33:51.902Z,73.57
2018-11-29T01:37:16.643Z,74.61
2018-11-29T01:40:41.360Z,74.08
2018-11-29T01:44:06.814Z,74.26
2018-11-29T01:47:31.535Z,74.03
2018-11-29T01:50:56.235Z,74.50
2018-11-29T01:54:20.951Z,74.54
2018-11-29T01:57:45.664Z,73.97
2018-11-29T02:01:10.347Z,73.20
2018-11-29T02:04:35.026Z,73.56
2018-11-29T02:07:59.754Z,74.38
2018-11-29T02:11:24.414Z,74.13
2018-11-29T02:14:49.114Z,73.40
2018-11-29T02:18:13.805Z,74.04
2018-11-29T02:21:38.585Z,72.99
2018-11-29T02:25:03.274Z,73.76
2018-11-29T02:28:28.001Z,74.75
2018-11-29T02:31:52.753Z,74.54
2018-11-29T02:35:17.562Z,73.56
2018-11-29T02:38:42.265Z,74.04
2018-11-29T02:42:07.490Z,73.18
2018-11-29T02:45:32.170Z,74.15
2018-11-29T02:48:56.885Z,73.62
2018-11-29T02:52:21.745Z,74.24
2018-11-29T02:55:46.493Z,73.15
2018-11-29T02:59:11.167Z,74.01
2018-11-29T03:02:35.913Z,74.18
2018-11-29T03:06:00.697Z,73.68
2018-11-29T03:09:25.423Z,73.62
2018-11-29T03:12:50.214Z,74.11
2018-11-29T03:16:14.906Z,73.54
2018-11-29T03:19:39.619Z,74.75
2018-11-29T03:23:04.353Z,73.73
2018-11-29T03:26:29.085Z,73.41
2018-11-29T03:29:53.783Z,74.57
2018-11-29T03:33:18.489Z,74.03
2018-11-29T03:36:43.237Z,73.43
2018-11-29T03:40:12.446Z,73.84
2018-11-29T03:43:37.121Z,73.67
2018-11-29T03:47:01.859Z,74.43
2018-11-29T03:50:26.575Z,74.60
2018-11-29T03:53:51.294Z,74.09
2018-11-29T03:57:16.006Z,73.56
2018-11-29T04:00:40.714Z,73.77
2018-11-29T04:04:05.731Z,73.70
2018-11-29T04:07:30.414Z,73.40
2018-11-29T04:10:55.175Z,74.84
2018-11-29T04:14:19.851Z,73.61
2018-11-29T04:17:44.981Z,74.03
2018-11-29T04:21:09.662Z,73.53
2018-11-29T04:24:34.340Z,72.79
2018-11-29T04:27:59.057Z,72.79
2018-11-29T04:31:23.768Z,73.75
2018-11-29T04:34:48.511Z,73.89
2018-11-29T04:38:13.166Z,73.89
2018-11-29T04:41:37.999Z,74.50
2018-11-29T04:45:02.707Z,74.50
2018-11-29T04:48:27.382Z,74.15
2018-11-29T04:51:52.079Z,73.36
2018-11-29T04:55:16.842Z,73.54
2018-11-29T04:58:41.533Z,73.71
2018-11-29T05:02:06.960Z,73.55
2018-11-29T05:05:31.660Z,73.38
2018-11-29T05:08:56.382Z,73.08
2018-11-29T05:12:21.129Z,74.23
2018-11-29T05:15:45.823Z,75.24
2018-11-29T05:19:10.558Z,75.38
2018-11-29T05:22:35.236Z,75.59
2018-11-29T05:25:59.943Z,74.94
2018-11-29T05:29:24.637Z,75.53
2018-11-29T05:32:49.340Z,76.05
2018-11-29T05:36:14.114Z,77.10
2018-11-29T05:39:38.834Z,77.20
2018-11-29T05:43:03.564Z,76.78
2018-11-29T05:46:28.261Z,77.41
2018-11-29T05:49:53.067Z,76.33
2018-11-29T05:53:17.813Z,74.86
2018-11-29T05:56:42.501Z,74.86
2018-11-29T06:00:11.294Z,74.96
2018-11-29T06:03:36.008Z,75.42
2018-11-29T06:07:00.660Z,75.00
2018-11-29T06:10:25.371Z,75.02
2018-11-29T06:13:50.040Z,75.80
2018-11-29T06:17:14.728Z,75.84
2018-11-29T06:20:39.543Z,75.51
2018-11-29T06:24:04.592Z,76.05
2018-11-29T06:27:29.344Z,75.67
2018-11-29T06:30:54.084Z,76.22
2018-11-29T06:34:18.828Z,76.30
2018-11-29T06:37:43.557Z,75.86
2018-11-29T06:41:08.403Z,75.39
2018-11-29T06:44:33.105Z,75.54
2018-11-29T06:47:57.785Z,75.09
2018-11-29T06:51:22.546Z,74.91
2018-11-29T06:54:47.284Z,75.93
2018-11-29T06:58:12.072Z,75.87
2018-11-29T07:01:36.883Z,75.26
2018-11-29T07:05:01.617Z,75.45
2018-11-29T07:08:26.311Z,75.45
2018-11-29T07:11:51.007Z,75.07
2018-11-29T07:15:15.793Z,74.70
2018-11-29T07:18:40.583Z,74.49
2018-11-29T07:22:05.538Z,74.61
2018-11-29T07:25:30.374Z,74.28
2018-11-29T07:28:55.211Z,75.76
2018-11-29T07:32:24.568Z,74.29
2018-11-29T07:35:49.360Z,74.40
2018-11-29T07:39:14.096Z,74.40
2018-11-29T07:42:38.851Z,74.12
2018-11-29T07:46:03.631Z,73.65
2018-11-29T07:49:28.393Z,73.99
2018-11-29T07:52:53.206Z,73.23
2018-11-29T07:56:17.947Z,73.77
2018-11-29T07:59:42.783Z,72.73
2018-11-29T08:03:07.548Z,72.28
2018-11-29T08:06:32.277Z,72.53
2018-11-29T08:09:57.061Z,72.47
2018-11-29T08:13:21.822Z,71.81
2018-11-29T08:16:46.512Z,71.88
2018-11-29T08:20:17.978Z,72.09
2018-11-29T08:23:42.800Z,71.28
2018-11-29T08:27:07.608Z,71.52
2018-11-29T08:30:32.383Z,72.61
2018-11-29T08:33:57.198Z,71.18
2018-11-29T08:37:22.002Z,70.60
2018-11-29T08:40:46.793Z,71.55
2018-11-29T08:44:11.518Z,71.48
2018-11-29T08:47:36.336Z,70.98
2018-11-29T08:51:01.079Z,70.15
2018-11-29T08:54:25.800Z,70.54
2018-11-29T08:57:50.874Z,68.97
2018-11-29T09:01:15.629Z,69.67
2018-11-29T09:04:40.401Z,68.49
2018-11-29T09:08:05.175Z,68.93
2018-11-29T09:11:29.915Z,69.16
2018-11-29T09:14:54.670Z,68.22
2018-11-29T09:18:19.473Z,68.30
2018-11-29T09:21:44.273Z,68.40
2018-11-29T09:25:12.990Z,68.52
2018-11-29T09:28:37.714Z,68.99
2018-11-29T09:32:02.487Z,68.13
2018-11-29T09:35:27.231Z,66.82
2018-11-29T09:38:51.970Z,67.91
2018-11-29T09:42:16.730Z,67.97
2018-11-29T09:45:41.506Z,67.87
2018-11-29T09:49:06.434Z,68.40
2018-11-29T09:52:31.173Z,68.36
2018-11-29T09:55:55.986Z,68.93
2018-11-29T09:59:20.778Z,69.54
2018-11-29T10:02:54.197Z,68.90
2018-11-29T10:06:18.991Z,68.92
2018-11-29T10:09:43.740Z,69.07
2018-11-29T10:13:08.578Z,68.82
2018-11-29T10:16:33.740Z,69.14
2018-11-29T10:19:58.092Z,68.75
2018-11-29T10:23:22.840Z,69.15
2018-11-29T10:26:47.650Z,70.29
2018-11-29T10:30:18.914Z,71.26
2018-11-29T10:33:43.677Z,73.19
2018-11-29T10:37:08.538Z,73.41
2018-11-29T10:40:33.255Z,74.32
2018-11-29T10:43:58.012Z,74.15
2018-11-29T10:47:22.757Z,74.22
2018-11-29T10:50:47.532Z,73.82
2018-11-29T10:54:16.690Z,73.60
2018-11-29T10:57:37.143Z,73.97
2018-11-29T11:01:07.169Z,73.08
2018-11-29T11:04:31.945Z,73.06
2018-11-29T11:07:56.730Z,74.02
2018-11-29T11:11:21.491Z,74.33
2018-11-29T11:14:46.249Z,74.95
2018-11-29T11:18:12.675Z,76.34
2018-11-29T11:21:37.397Z,76.70
2018-11-29T11:25:02.181Z,77.42
2018-11-29T11:28:26.942Z,77.11
2018-11-29T11:31:51.726Z,76.95
2018-11-29T11:35:16.555Z,77.47
2018-11-29T11:38:41.357Z,78.00
2018-11-29T11:42:06.092Z,77.40
2018-11-29T11:45:30.915Z,78.73
2018-11-29T11:48:55.780Z,79.62
2018-11-29T11:52:20.538Z,80.17
2018-11-29T11:55:45.225Z,80.59
2018-11-29T11:59:10.167Z,79.83
2018-11-29T12:02:35.783Z,80.12
2018-11-29T12:06:00.578Z,79.74
2018-11-29T12:09:25.414Z,79.75
2018-11-29T12:12:50.237Z,78.61
2018-11-29T12:16:15.021Z,78.64
2018-11-29T12:19:41.078Z,78.55
2018-11-29T12:23:04.729Z,76.87
2018-11-29T12:26:29.507Z,76.92
2018-11-29T12:29:54.290Z,76.65
2018-11-29T12:33:18.970Z,76.32
2018-11-29T12:36:43.790Z,76.83
2018-11-29T12:40:12.794Z,75.55
2018-11-29T12:43:37.600Z,76.42
2018-11-29T12:47:02.328Z,76.00
2018-11-29T12:50:27.862Z,76.19
2018-11-29T12:53:52.680Z,74.88
2018-11-29T12:57:17.415Z,74.82
2018-11-29T13:00:42.253Z,75.77
2018-11-29T13:04:07.079Z,75.93
2018-11-29T13:07:31.833Z,77.17
2018-11-29T13:10:56.595Z,76.39
2018-11-29T13:14:21.334Z,76.39
2018-11-29T13:17:46.236Z,76.28
2018-11-29T13:21:10.957Z,76.70
2018-11-29T13:24:35.782Z,76.88
2018-11-29T13:28:00.529Z,76.45
2018-11-29T13:31:25.268Z,75.36
2018-11-29T13:34:50.005Z,74.83
2018-11-29T13:38:16.777Z,75.57
2018-11-29T13:41:41.480Z,74.53
2018-11-29T13:45:09.364Z,74.13
2018-11-29T13:48:34.065Z,74.40
2018-11-29T13:51:58.826Z,74.19
2018-11-29T13:55:23.561Z,72.92
2018-11-29T13:58:48.310Z,73.34
2018-11-29T14:02:13.193Z,73.00
2018-11-29T14:05:38.407Z,73.77
2018-11-29T14:09:03.233Z,72.31
2018-11-29T14:12:28.164Z,72.32
2018-11-29T14:15:53.104Z,71.43
2018-11-29T14:19:17.874Z,72.11
2018-11-29T14:22:42.714Z,70.66
2018-11-29T14:26:07.499Z,70.90
2018-11-29T14:29:32.257Z,70.18
2018-11-29T14:33:00.058Z,69.96
2018-11-29T14:36:25.109Z,70.67
2018-11-29T14:39:49.967Z,70.33
2018-11-29T14:43:14.788Z,70.20
2018-11-29T14:46:39.549Z,70.15
2018-11-29T14:50:06.526Z,69.58
2018-11-29T14:53:31.346Z,69.61
2018-11-29T14:56:56.253Z,70.29
2018-11-29T15:00:21.063Z,70.34
2018-11-29T15:03:45.819Z,70.25
2018-11-29T15:07:10.538Z,69.94
2018-11-29T15:10:35.451Z,69.97
2018-11-29T15:14:00.248Z,69.62
2018-11-29T15:17:25.043Z,69.81
2018-11-29T15:20:50.404Z,69.79
2018-11-29T15:24:22.818Z,70.14
2018-11-29T15:27:47.612Z,69.34
2018-11-29T15:31:12.355Z,69.14
2018-11-29T15:34:37.225Z,68.69
2018-11-29T15:38:02.043Z,68.70
2018-11-29T15:41:26.866Z,68.73
2018-11-29T15:44:51.730Z,68.84
2018-11-29T15:48:17.561Z,68.50
2018-11-29T15:51:42.509Z,68.87
2018-11-29T15:55:15.471Z,68.19
2018-11-29T15:58:40.647Z,68.66
2018-11-29T16:02:05.848Z,68.84
2018-11-29T16:05:30.803Z,69.54
2018-11-29T16:08:55.788Z,69.27
2018-11-29T16:12:20.846Z,69.55
2018-11-29T16:15:45.861Z,70.29
2018-11-29T16:19:10.632Z,69.61
2018-11-29T16:22:35.526Z,68.38
2018-11-29T16:26:00.288Z,68.61
2018-11-29T16:29:25.226Z,68.17
2018-11-29T16:32:50.161Z,67.81
2018-11-29T16:36:15.009Z,66.58
2018-11-29T16:39:39.953Z,67.85
2018-11-29T16:43:04.754Z,67.21
2018-11-29T16:46:29.696Z,67.41
2018-11-29T16:49:54.508Z,66.86
2018-11-29T16:53:19.382Z,66.78
2018-11-29T16:56:44.100Z,66.14
2018-11-29T17:00:14.367Z,66.91
2018-11-29T17:03:39.074Z,66.69
2018-11-29T17:07:04.465Z,67.03
2018-11-29T17:10:30.297Z,67.08
2018-11-29T17:13:55.043Z,66.23
2018-11-29T17:17:19.793Z,66.69
2018-11-29T17:20:44.614Z,66.01
2018-11-29T17:24:09.373Z,66.73
2018-11-29T17:27:34.225Z,66.25
2018-11-29T17:30:58.967Z,66.56
2018-11-29T17:34:23.703Z,66.57
2018-11-29T17:37:48.790Z,66.80
2018-11-29T17:41:13.484Z,65.47
2018-11-29T17:44:38.283Z,66.28
2018-11-29T17:48:17.403Z,65.75
2018-11-29T17:51:42.123Z,65.99
2018-11-29T17:55:07.462Z,66.03
2018-11-29T17:58:32.250Z,65.33
2018-11-29T18:01:57.057Z,65.13
2018-11-29T18:05:21.817Z,65.23
2018-11-29T18:08:46.536Z,66.05
2018-11-29T18:12:11.312Z,65.02
2018-11-29T18:15:36.957Z,64.26
2018-11-29T18:19:01.710Z,64.35
2018-11-29T18:22:26.392Z,64.14
2018-11-29T18:25:51.834Z,63.44
2018-11-29T18:29:16.613Z,64.30
2018-11-29T18:32:41.473Z,63.35
2018-11-29T18:36:06.587Z,62.74
2018-11-29T18:39:31.330Z,63.26
2018-11-29T18:42:59.965Z,62.57
2018-11-29T18:46:24.683Z,63.07
2018-11-29T18:49:49.525Z,62.81
2018-11-29T18:53:16.104Z,62.44
2018-11-29T18:56:40.936Z,62.98
2018-11-29T19:00:12.236Z,63.07
2018-11-29T19:03:37.062Z,64.30
2018-11-29T19:07:01.812Z,63.73
2018-11-29T19:10:26.682Z,64.04
2018-11-29T19:13:51.457Z,63.63
2018-11-29T19:17:16.274Z,63.79
2018-11-29T19:20:41.216Z,63.88
2018-11-29T19:24:06.819Z,63.14
2018-11-29T19:27:31.511Z,64.35
2018-11-29T19:30:57.090Z,64.10
2018-11-29T19:34:24.379Z,63.17
2018-11-29T19:37:50.218Z,62.93
2018-11-29T19:41:17.611Z,63.04
2018-11-29T19:44:55.746Z,63.02
2018-11-29T19:48:21.902Z,62.93
2018-11-29T19:51:46.651Z,63.16
2018-11-29T19:55:19.108Z,63.04
2018-11-29T19:58:44.644Z,63.08
2018-11-29T20:02:10.665Z,63.21
2018-11-29T20:05:36.566Z,63.51
2018-11-29T20:09:02.872Z,63.53
2018-11-29T20:12:29.564Z,63.64
2018-11-29T20:15:57.089Z,63.07
2018-11-29T20:19:23.081Z,64.33
2018-11-29T20:22:48.539Z,64.10
2018-11-29T20:26:14.192Z,63.80
2018-11-29T20:29:40.447Z,64.53
2018-11-29T20:33:08.624Z,63.52
2018-11-29T20:36:35.172Z,63.14
2018-11-29T20:40:00.913Z,63.45
2018-11-29T20:43:26.474Z,62.71
2018-11-29T20:46:56.138Z,62.77
2018-11-29T20:50:24.152Z,62.91
2018-11-29T20:53:51.543Z,63.76
2018-11-29T20:57:16.276Z,62.41
2018-11-29T21:00:40.963Z,62.66
2018-11-29T21:04:05.908Z,62.76
2018-11-29T21:07:30.647Z,62.12
2018-11-29T21:10:55.450Z,62.36
2018-11-29T21:14:23.264Z,61.59
2018-11-29T21:17:48.982Z,62.40
2018-11-29T21:21:14.756Z,62.96
2018-11-29T21:24:40.761Z,63.17
2018-11-29T21:28:07.626Z,62.51
2018-11-29T21:31:32.400Z,62.99
2018-11-29T21:34:57.079Z,62.48
2018-11-29T21:38:23.339Z,62.18
2018-11-29T21:41:49.128Z,62.44
2018-11-29T21:45:13.886Z,62.03
2018-11-29T21:48:38.589Z,62.59
2018-11-29T21:52:03.370Z,62.74
2018-11-29T21:55:28.154Z,63.15
2018-11-29T21:58:52.927Z,63.10
2018-11-29T22:02:17.676Z,62.04
2018-11-29T22:05:42.462Z,62.13
2018-11-29T22:09:08.088Z,63.03
2018-11-29T22:12:32.834Z,63.00
2018-11-29T22:15:57.507Z,63.01
2018-11-29T22:19:22.158Z,63.29
2018-11-29T22:22:46.862Z,62.20
2018-11-29T22:26:13.802Z,62.97
2018-11-29T22:29:38.561Z,62.69
2018-11-29T22:33:03.326Z,63.87
2018-11-29T22:36:28.073Z,63.03
2018-11-29T22:39:52.804Z,63.17
2018-11-29T22:43:17.552Z,63.64
2018-11-29T22:46:42.299Z,63.32
2018-11-29T22:50:08.075Z,63.89
2018-11-29T22:53:32.890Z,63.59
2018-11-29T22:56:57.630Z,63.57
2018-11-29T23:00:22.506Z,63.78
2018-11-29T23:03:47.221Z,63.37
2018-11-29T23:07:11.958Z,63.44
2018-11-29T23:10:36.783Z,63.64
2018-11-29T23:14:01.515Z,63.38
2018-11-29T23:17:26.283Z,63.90
2018-11-29T23:20:50.992Z,64.21
2018-11-29T23:24:15.739Z,64.40
2018-11-29T23:27:40.476Z,64.04
2018-11-29T23:31:05.273Z,64.16
2018-11-29T23:34:29.913Z,63.60
2018-11-29T23:37:54.608Z,63.89
2018-11-29T23:41:19.313Z,63.60
2018-11-29T23:44:44.045Z,64.03
2018-11-29T23:48:08.724Z,64.86
2018-11-29T23:51:33.366Z,65.31
2018-11-29T23:54:58.018Z,64.69
2018-11-29T23:58:22.715Z,64.13
